Time;durP1;ratioP1;P1;durP2;ratioP2;P2;SDS_P1;SDS_P2;PMS_P1;PMS_P2;Temp;Humidity;BMP_temperature;BMP_pressure;BME280_temperature;BME280_humidity;BME280_pressure;Samples;Min_cycle;Max_cycle;Signal;HPM_P1;HPM_P2
2023/06/03 00:01:24;;;;;;;17.83;7.00;;;;;;;10.86;100.00;101965.75;4978060;28;20046;-92
2023/06/03 00:03:50;;;;;;;17.63;7.53;;;;;;;10.85;100.00;101972.16;4979025;28;20684;-93
2023/06/03 00:06:15;;;;;;;17.45;6.85;;;;;;;10.85;100.00;101966.78;4983967;28;20162;-92
2023/06/03 00:08:42;;;;;;;20.53;7.13;;;;;;;10.78;100.00;101961.53;4982450;28;20023;-93
2023/06/03 00:11:08;;;;;;;18.45;7.32;;;;;;;10.81;100.00;101962.94;4985220;28;20085;-91
2023/06/03 00:13:34;;;;;;;15.37;7.83;;;;;;;10.81;100.00;101968.28;4999312;28;20015;-92
2023/06/03 00:15:59;;;;;;;17.27;7.23;;;;;;;10.75;100.00;101962.00;5017073;28;20368;-92
2023/06/03 00:18:26;;;;;;;18.23;6.97;;;;;;;10.73;100.00;101964.91;4999068;28;20030;-92
2023/06/03 00:20:52;;;;;;;16.52;7.03;;;;;;;10.67;100.00;101960.47;5007505;28;20018;-92
2023/06/03 00:23:18;;;;;;;13.25;7.00;;;;;;;10.68;100.00;101967.47;4997550;28;20014;-92
2023/06/03 00:25:43;;;;;;;16.70;6.93;;;;;;;10.65;100.00;101962.56;4987775;28;20066;-93
2023/06/03 00:28:09;;;;;;;16.63;6.67;;;;;;;10.63;100.00;101966.53;4959995;28;20119;-94
2023/06/03 00:30:35;;;;;;;13.93;6.72;;;;;;;10.61;100.00;101969.44;4975998;28;20025;-93
2023/06/03 00:33:01;;;;;;;17.42;6.85;;;;;;;10.60;100.00;101968.63;4976631;28;20018;-92
2023/06/03 00:35:26;;;;;;;19.67;6.63;;;;;;;10.51;100.00;101967.31;4980084;28;20041;-92
2023/06/03 00:37:54;;;;;;;15.70;6.27;;;;;;;10.50;100.00;101951.47;4975986;28;20025;-93
2023/06/03 00:40:20;;;;;;;22.83;7.13;;;;;;;10.51;100.00;101966.50;4974902;28;20310;-93
2023/06/03 00:42:45;;;;;;;13.82;6.25;;;;;;;10.47;100.00;101963.47;4976028;28;20026;-93
2023/06/03 00:45:11;;;;;;;15.40;6.17;;;;;;;10.47;100.00;101968.84;4967557;28;20398;-93
2023/06/03 00:47:37;;;;;;;20.00;6.37;;;;;;;10.43;100.00;101963.09;4975891;28;20089;-93
2023/06/03 00:50:03;;;;;;;14.18;6.40;;;;;;;10.43;100.00;101959.59;4974628;28;20023;-92
2023/06/03 00:52:30;;;;;;;17.75;6.45;;;;;;;10.37;100.00;101958.63;4974632;28;20049;-93
2023/06/03 00:54:56;;;;;;;13.83;6.00;;;;;;;10.29;100.00;101959.78;4984468;28;20038;-92
2023/06/03 00:57:22;;;;;;;16.03;6.47;;;;;;;10.32;100.00;101966.53;4981009;28;20290;-92
2023/06/03 00:59:48;;;;;;;16.73;6.70;;;;;;;10.29;100.00;101966.97;4975332;28;20023;-92
2023/06/03 01:02:14;;;;;;;15.55;6.57;;;;;;;10.25;100.00;101968.47;4974906;28;20051;-93
2023/06/03 01:04:42;;;;;;;17.45;6.57;;;;;;;10.26;100.00;101965.59;4980767;28;20034;-92
2023/06/03 01:07:13;;;;;;;20.50;6.97;;;;;;;10.15;100.00;101952.94;4973870;28;20031;-92
2023/06/03 01:10:06;;;;;;;11.43;6.33;;;;;;;10.03;100.00;101939.53;4975545;28;20290;-92
2023/06/03 01:12:53;;;;;;;11.88;5.93;;;;;;;10.12;100.00;101964.94;4972870;28;20027;-92
2023/06/03 01:15:23;;;;;;;18.90;7.00;;;;;;;10.08;100.00;101961.06;4991198;28;20038;-92
2023/06/03 01:17:52;;;;;;;14.15;6.05;;;;;;;10.03;100.00;101955.59;4977885;28;20046;-91
2023/06/03 01:20:26;;;;;;;14.57;6.38;;;;;;;10.05;100.00;101966.06;4975314;28;20502;-92
2023/06/03 01:22:56;;;;;;;14.93;5.80;;;;;;;9.94;100.00;101948.91;4958183;28;20402;-92
2023/06/03 01:25:23;;;;;;;10.05;5.95;;;;;;;9.93;100.00;101955.31;4968885;28;20487;-92
2023/06/03 01:27:51;;;;;;;11.15;6.28;;;;;;;9.90;100.00;101963.78;4977020;28;20557;-92
2023/06/03 01:30:19;;;;;;;13.80;6.68;;;;;;;9.88;100.00;101958.66;4974947;28;20110;-92
2023/06/03 01:32:47;;;;;;;15.70;6.40;;;;;;;9.88;100.00;101957.84;4973491;28;20026;-91
2023/06/03 01:35:13;;;;;;;12.77;6.00;;;;;;;9.90;100.00;101961.09;4974558;28;20301;-92
2023/06/03 01:37:42;;;;;;;9.35;5.82;;;;;;;9.82;100.00;101954.19;4988826;28;20022;-91
2023/06/03 01:40:09;;;;;;;10.63;6.45;;;;;;;9.75;100.00;101945.44;4993184;28;20045;-92
2023/06/03 01:42:36;;;;;;;19.63;6.20;;;;;;;9.82;100.00;101964.91;4990922;28;20359;-91
2023/06/03 01:45:03;;;;;;;15.48;6.43;;;;;;;9.82;100.00;101968.41;4981692;28;20038;-91
2023/06/03 01:47:28;;;;;;;16.92;6.70;;;;;;;9.76;100.00;101950.56;4978140;28;20027;-91
2023/06/03 01:49:54;;;;;;;14.17;6.20;;;;;;;9.78;100.00;101963.72;4978394;28;20013;-91
2023/06/03 01:52:19;;;;;;;14.15;6.57;;;;;;;9.64;100.00;101944.34;4987890;28;20089;-91
2023/06/03 01:54:45;;;;;;;16.53;6.80;;;;;;;9.71;100.00;101963.81;4977477;28;20082;-92
2023/06/03 01:57:11;;;;;;;12.57;5.47;;;;;;;9.71;100.00;101958.44;4979327;28;20141;-92
2023/06/03 01:59:37;;;;;;;10.57;6.07;;;;;;;9.68;100.00;101959.72;4985035;28;20027;-91
2023/06/03 02:02:03;;;;;;;12.95;6.30;;;;;;;9.60;100.00;101956.53;4969385;28;20022;-91
2023/06/03 02:04:28;;;;;;;14.07;6.40;;;;;;;9.64;100.00;101963.88;4995936;28;20463;-90
2023/06/03 02:06:57;;;;;;;15.13;6.57;;;;;;;9.56;100.00;101945.47;4996184;28;20034;-92
2023/06/03 02:09:27;;;;;;;16.10;6.75;;;;;;;9.63;100.00;101956.88;4990250;28;20031;-92
2023/06/03 02:11:56;;;;;;;13.73;6.32;;;;;;;9.60;100.00;101951.19;4981856;28;20030;-92
2023/06/03 02:14:22;;;;;;;11.25;6.32;;;;;;;9.60;100.00;101962.69;4991542;28;20057;-92
2023/06/03 02:16:48;;;;;;;16.83;6.63;;;;;;;9.54;100.00;101951.03;4977772;28;20034;-92
2023/06/03 02:19:17;;;;;;;12.55;5.82;;;;;;;9.47;100.00;101939.59;4959313;28;20518;-93
2023/06/03 02:21:43;;;;;;;16.70;6.20;;;;;;;9.54;100.00;101956.38;4959258;28;20027;-92
2023/06/03 02:24:10;;;;;;;10.60;5.53;;;;;;;9.54;100.00;101958.25;4974950;28;20026;-91
2023/06/03 02:26:36;;;;;;;13.45;5.70;;;;;;;9.51;100.00;101956.00;4975453;28;20529;-92
2023/06/03 02:29:11;;;;;;;11.73;5.95;;;;;;;9.48;100.00;101946.59;4976251;28;20027;-92
2023/06/03 02:31:36;;;;;;;12.82;6.22;;;;;;;9.48;100.00;101948.44;4981917;28;20029;-92
2023/06/03 02:34:01;;;;;;;16.23;6.17;;;;;;;9.46;100.00;101956.69;4996536;28;20034;-92
2023/06/03 02:36:27;;;;;;;13.33;5.73;;;;;;;9.43;100.00;101950.94;4995341;28;20038;-91
2023/06/03 02:38:52;;;;;;;10.77;5.93;;;;;;;9.50;100.00;101957.84;4995782;28;20555;-92
2023/06/03 02:41:17;;;;;;;13.47;5.63;;;;;;;9.50;100.00;101960.53;4983166;28;20022;-92
2023/06/03 02:43:43;;;;;;;15.10;6.23;;;;;;;9.47;100.00;101961.00;4962553;28;20664;-92
2023/06/03 02:46:09;;;;;;;10.13;5.60;;;;;;;9.29;100.00;101939.59;4977119;28;20061;-93
2023/06/03 02:48:34;;;;;;;9.20;5.90;;;;;;;9.41;100.00;101969.91;4960394;28;20090;-92
2023/06/03 02:51:00;;;;;;;13.40;6.03;;;;;;;9.27;100.00;101947.00;4976956;28;20033;-89
2023/06/03 02:53:25;;;;;;;11.35;6.50;;;;;;;9.26;100.00;101940.03;4957826;28;20027;-91
2023/06/03 02:55:51;;;;;;;9.50;5.67;;;;;;;9.30;100.00;101951.91;4975209;28;20311;-94
2023/06/03 02:58:16;;;;;;;11.17;5.57;;;;;;;9.35;100.00;101966.25;4992897;28;20033;-93
2023/06/03 03:00:42;;;;;;;9.93;5.68;;;;;;;9.29;100.00;101967.13;4981445;28;20073;-94
2023/06/03 03:03:09;;;;;;;14.23;6.77;;;;;;;9.29;100.00;101961.78;4979686;28;20499;-91
2023/06/03 03:05:35;;;;;;;10.15;5.97;;;;;;;9.23;100.00;101957.31;4977718;28;20049;-92
2023/06/03 03:08:00;;;;;;;10.35;6.32;;;;;;;9.19;100.00;101954.28;4993633;28;20031;-91
2023/06/03 03:10:26;;;;;;;15.20;6.43;;;;;;;9.31;100.00;101964.25;4975032;28;20086;-92
2023/06/03 03:12:51;;;;;;;14.33;6.27;;;;;;;9.24;100.00;101951.75;4958347;28;20042;-92
2023/06/03 03:15:17;;;;;;;13.43;5.70;;;;;;;9.17;100.00;101953.66;4975473;28;20058;-91
2023/06/03 03:17:42;;;;;;;11.13;6.00;;;;;;;9.15;100.00;101953.06;4976720;28;20031;-91
2023/06/03 03:20:08;;;;;;;12.32;6.13;;;;;;;9.14;100.00;101945.28;4977970;28;20121;-91
2023/06/03 03:22:39;;;;;;;9.77;6.25;;;;;;;9.07;100.00;101942.66;4976753;28;20027;-91
2023/06/03 03:25:05;;;;;;;12.53;6.10;;;;;;;9.16;100.00;101954.72;4976305;28;20031;-91
2023/06/03 03:27:30;;;;;;;10.03;6.30;;;;;;;9.18;100.00;101965.19;4976108;28;20677;-91
2023/06/03 03:29:59;;;;;;;10.65;5.75;;;;;;;9.17;100.00;101964.38;4978863;28;20018;-90
2023/06/03 03:32:24;;;;;;;13.60;6.22;;;;;;;9.11;100.00;101948.38;4978199;28;20120;-91
2023/06/03 03:35:08;;;;;;;13.90;5.83;;;;;;;9.11;100.00;101954.56;4981212;28;20066;-91
2023/06/03 03:37:33;;;;;;;18.30;6.20;;;;;;;9.13;100.00;101955.13;4986841;28;20026;-86
2023/06/03 03:39:58;;;;;;;12.83;6.00;;;;;;;9.20;100.00;101971.94;4988822;28;20038;-85
2023/06/03 03:42:24;;;;;;;12.43;5.90;;;;;;;9.18;100.00;101971.34;4972402;28;20448;-85
2023/06/03 03:44:49;;;;;;;10.57;6.07;;;;;;;9.20;100.00;101976.50;4977569;28;20034;-85
2023/06/03 03:47:23;;;;;;;10.57;6.22;;;;;;;9.18;100.00;101978.56;4988669;28;20034;-86
2023/06/03 03:49:48;;;;;;;12.38;5.93;;;;;;;9.19;100.00;101978.34;4974912;28;20402;-85
2023/06/03 03:52:14;;;;;;;12.40;6.10;;;;;;;9.26;100.00;101982.81;4962791;28;20030;-85
2023/06/03 03:54:39;;;;;;;9.13;5.70;;;;;;;9.27;100.00;101973.75;4993462;28;20128;-85
2023/06/03 03:57:16;;;;;;;12.32;6.05;;;;;;;9.35;100.00;101973.44;4992683;28;20030;-85
2023/06/03 03:59:42;;;;;;;11.90;6.03;;;;;;;9.36;100.00;101975.94;4974665;28;20038;-86
2023/06/03 04:02:07;;;;;;;9.07;5.20;;;;;;;9.37;100.00;101982.91;4974746;28;20289;-85
2023/06/03 04:04:42;;;;;;;9.10;5.77;;;;;;;9.37;100.00;101982.06;4992424;28;20026;-85
2023/06/03 04:07:08;;;;;;;8.65;5.50;;;;;;;9.39;100.00;101975.50;4992709;28;20050;-84
2023/06/03 04:09:36;;;;;;;11.35;5.82;;;;;;;9.46;100.00;101983.44;4991943;28;20027;-83
2023/06/03 04:12:06;;;;;;;11.88;6.05;;;;;;;9.52;100.00;101976.38;4980493;28;20088;-84
2023/06/03 04:14:49;;;;;;;9.07;5.85;;;;;;;9.50;100.00;101971.22;4966592;28;20042;-84
2023/06/03 04:17:25;;;;;;;13.82;5.70;;;;;;;9.60;100.00;101989.44;4972243;28;20062;-84
2023/06/03 04:19:50;;;;;;;10.20;5.97;;;;;;;9.60;100.00;101977.94;4973114;28;20023;-85
2023/06/03 04:22:21;;;;;;;11.17;6.20;;;;;;;9.69;100.00;101990.81;4971181;28;20381;-84
2023/06/03 04:24:53;;;;;;;8.32;5.88;;;;;;;9.76;100.00;101997.94;4973970;28;20089;-83
2023/06/03 04:27:18;;;;;;;11.52;5.70;;;;;;;9.77;100.00;101995.03;4974376;28;20097;-83
2023/06/03 04:29:44;;;;;;;12.00;6.43;;;;;;;9.79;100.00;101992.13;4974090;28;20027;-81
2023/06/03 04:32:10;;;;;;;9.20;5.35;;;;;;;9.79;100.00;101984.09;4972052;28;20150;-83
2023/06/03 04:34:48;;;;;;;11.33;5.77;;;;;;;9.91;100.00;102006.41;4972268;28;20027;-83
2023/06/03 04:37:14;;;;;;;11.55;5.80;;;;;;;9.97;100.00;101991.31;4971276;28;20037;-83
2023/06/03 04:39:39;;;;;;;11.23;5.60;;;;;;;10.10;100.00;101996.50;4971851;28;20465;-83
2023/06/03 04:42:07;;;;;;;9.40;5.20;;;;;;;10.22;100.00;102001.91;4973041;28;20022;-83
2023/06/03 04:44:33;;;;;;;8.60;5.22;;;;;;;10.34;100.00;101999.28;4974964;28;20117;-86
2023/06/03 04:47:00;;;;;;;8.20;5.43;;;;;;;10.40;100.00;101993.03;4967043;28;20118;-85
2023/06/03 04:49:27;;;;;;;11.57;5.60;;;;;;;10.59;100.00;102003.72;4992591;28;20050;-85
2023/06/03 04:51:52;;;;;;;9.15;5.25;;;;;;;11.36;100.00;102002.03;4989384;28;20054;-85
2023/06/03 04:54:23;;;;;;;7.77;4.90;;;;;;;12.53;100.00;102009.19;4992786;28;20090;-85
2023/06/03 04:56:49;;;;;;;7.23;4.37;;;;;;;13.52;91.68;102006.16;4975478;28;20868;-85
2023/06/03 04:59:14;;;;;;;8.20;4.28;;;;;;;14.36;86.65;101999.63;4984144;28;20051;-85
2023/06/03 05:01:40;;;;;;;7.90;4.13;;;;;;;15.24;81.29;102019.22;4985590;28;20026;-84
2023/06/03 05:04:08;;;;;;;6.55;3.65;;;;;;;15.83;76.66;102008.44;4974863;28;20026;-87
2023/06/03 05:06:36;;;;;;;6.07;3.80;;;;;;;16.15;72.79;102008.31;4980833;28;20053;-87
2023/06/03 05:09:01;;;;;;;4.90;3.83;;;;;;;16.65;69.73;102007.84;4973702;28;20035;-87
2023/06/03 05:11:27;;;;;;;8.60;3.97;;;;;;;16.98;68.33;102013.81;4974305;28;20172;-89
2023/06/03 05:13:52;;;;;;;6.17;3.47;;;;;;;17.37;65.83;102017.81;4973615;28;20042;-90
2023/06/03 05:16:17;;;;;;;6.13;3.67;;;;;;;17.75;64.23;102012.81;4982206;28;20120;-87
2023/06/03 05:18:45;;;;;;;7.15;3.70;;;;;;;18.35;62.42;102016.56;4987916;28;20367;-88
2023/06/03 05:21:10;;;;;;;6.90;3.23;;;;;;;18.61;59.35;102011.78;4971961;28;20101;-87
2023/06/03 05:23:36;;;;;;;6.23;3.30;;;;;;;18.91;56.95;102018.03;4979930;28;20384;-86
2023/06/03 05:26:01;;;;;;;5.37;3.20;;;;;;;18.78;56.34;102019.53;4994094;28;20109;-87
2023/06/03 05:28:27;;;;;;;3.97;3.00;;;;;;;19.10;54.93;102015.44;4995820;28;20741;-86
2023/06/03 05:30:52;;;;;;;5.53;3.27;;;;;;;19.52;55.35;102016.63;4984957;28;20482;-87
2023/06/03 05:33:29;;;;;;;9.00;3.08;;;;;;;19.74;56.01;102020.69;4974997;28;20031;-88
2023/06/03 05:35:55;;;;;;;5.10;2.90;;;;;;;19.56;52.23;102016.84;4972452;28;20054;-86
2023/06/03 05:38:20;;;;;;;7.30;3.40;;;;;;;19.60;52.00;102022.50;4988205;28;20384;-86
2023/06/03 05:40:52;;;;;;;6.43;3.10;;;;;;;19.64;52.33;102023.56;4977020;28;20026;-86
2023/06/03 05:43:18;;;;;;;3.70;2.90;;;;;;;19.59;51.09;102012.75;4973523;28;20083;-86
2023/06/03 05:45:44;;;;;;;7.10;3.00;;;;;;;19.49;51.87;102014.50;4975116;28;20363;-87
2023/06/03 05:48:09;;;;;;;6.20;3.22;;;;;;;19.63;50.75;102016.50;4976544;28;20034;-88
2023/06/03 05:50:38;;;;;;;4.87;2.80;;;;;;;19.33;50.30;102015.78;4958080;28;20022;-86
2023/06/03 05:53:04;;;;;;;5.63;3.00;;;;;;;19.14;50.67;102002.09;4977107;28;20034;-87
2023/06/03 05:55:30;;;;;;;6.22;3.33;;;;;;;19.03;51.09;102001.38;4976775;28;20046;-87
2023/06/03 05:57:56;;;;;;;5.88;2.90;;;;;;;18.61;50.65;102012.59;4957747;28;20027;-87
2023/06/03 06:00:21;;;;;;;8.73;3.03;;;;;;;18.20;53.02;102007.44;4958301;28;20023;-86
2023/06/03 06:02:47;;;;;;;8.00;2.80;;;;;;;17.99;53.67;102004.84;4981070;28;20970;-85
2023/06/03 06:05:13;;;;;;;6.00;3.20;;;;;;;17.64;55.18;102014.75;4973477;28;20033;-86
2023/06/03 06:07:38;;;;;;;4.03;3.10;;;;;;;17.33;55.72;102017.56;4973139;28;20042;-87
2023/06/03 06:10:04;;;;;;;4.67;2.80;;;;;;;16.99;56.63;102014.63;4980034;28;20317;-86
2023/06/03 06:12:29;;;;;;;6.60;2.70;;;;;;;16.73;57.66;102010.00;4981051;28;20062;-86
2023/06/03 06:14:55;;;;;;;7.17;3.00;;;;;;;16.52;57.77;102009.19;4959405;28;20497;-86
2023/06/03 06:17:20;;;;;;;4.63;2.95;;;;;;;16.45;58.84;102008.63;4991303;28;20042;-87
2023/06/03 06:19:46;;;;;;;6.63;3.10;;;;;;;16.35;59.52;102010.22;4970555;28;20065;-88
2023/06/03 06:22:12;;;;;;;4.53;3.05;;;;;;;16.28;60.32;102015.09;4966777;28;20114;-88
2023/06/03 06:24:44;;;;;;;5.40;3.03;;;;;;;16.12;59.88;102010.75;4974900;28;20050;-88
2023/06/03 06:27:10;;;;;;;6.28;2.83;;;;;;;16.09;59.73;102020.19;4974522;28;20050;-89
2023/06/03 06:29:35;;;;;;;4.37;2.77;;;;;;;15.97;59.30;102014.22;4958502;28;20493;-89
2023/06/03 06:32:03;;;;;;;9.25;2.70;;;;;;;15.86;58.60;102014.19;4974922;28;20110;-89
2023/06/03 06:34:31;;;;;;;6.55;2.50;;;;;;;15.89;59.96;102023.66;4975316;28;20053;-89
2023/06/03 06:36:58;;;;;;;8.32;2.92;;;;;;;15.94;59.25;102014.72;4974017;28;20027;-93
2023/06/03 06:39:33;;;;;;;5.97;2.70;;;;;;;16.02;59.07;102016.94;4972530;28;20506;-94
2023/06/03 06:42:17;;;;;;;10.80;2.55;;;;;;;15.99;58.79;102012.06;4974398;28;20042;-92
2023/06/03 06:44:47;;;;;;;4.87;2.70;;;;;;;15.97;58.32;102022.31;4979922;28;20062;-91
2023/06/03 06:47:24;;;;;;;5.93;2.60;;;;;;;16.07;59.28;102029.66;4974887;28;20294;-91
2023/06/03 06:49:50;;;;;;;9.63;2.70;;;;;;;16.09;57.93;102022.88;4959282;28;20031;-91
2023/06/03 06:52:16;;;;;;;7.07;2.80;;;;;;;16.18;57.05;102020.47;4973862;28;20027;-91
2023/06/03 06:54:42;;;;;;;6.65;2.72;;;;;;;16.17;56.31;102019.69;4978701;28;20447;-92
2023/06/03 06:57:07;;;;;;;5.30;2.50;;;;;;;16.15;57.23;102016.44;4963397;28;20027;-90
2023/06/03 06:59:32;;;;;;;3.50;2.30;;;;;;;16.28;56.65;102030.50;4977410;28;20035;-91
2023/06/03 07:01:58;;;;;;;5.88;2.50;;;;;;;16.40;56.16;102031.09;4977183;28;20466;-91
2023/06/03 07:04:23;;;;;;;5.23;2.40;;;;;;;16.48;56.53;102025.13;4974872;28;20244;-90
2023/06/03 07:06:49;;;;;;;4.10;2.30;;;;;;;16.62;54.04;102032.72;4976974;28;20026;-90
2023/06/03 07:09:15;;;;;;;4.95;2.17;;;;;;;16.68;53.56;102028.94;4976491;28;20159;-90
2023/06/03 07:11:45;;;;;;;5.40;2.25;;;;;;;16.86;53.15;102029.50;4974284;28;20073;-90
2023/06/03 07:14:10;;;;;;;7.33;2.50;;;;;;;16.93;53.43;102020.00;4977217;28;20027;-90
2023/06/03 07:16:36;;;;;;;6.72;2.38;;;;;;;17.04;52.42;102023.56;4974981;28;20041;-90
2023/06/03 07:19:03;;;;;;;6.03;2.77;;;;;;;17.19;51.79;102021.91;4973940;28;20058;-92
2023/06/03 07:21:29;;;;;;;5.10;2.05;;;;;;;17.32;50.20;102018.66;4976930;28;20079;-89
2023/06/03 07:23:55;;;;;;;7.88;2.63;;;;;;;17.34;49.52;102019.19;4961604;28;20062;-91
2023/06/03 07:26:20;;;;;;;4.97;2.03;;;;;;;17.44;49.42;102023.75;4974155;28;20034;-90
2023/06/03 07:28:47;;;;;;;8.60;2.20;;;;;;;17.45;48.47;102021.84;4977389;28;20058;-85
2023/06/03 07:31:13;;;;;;;8.88;2.45;;;;;;;17.51;48.94;102032.41;4973768;28;20035;-90
2023/06/03 07:33:54;;;;;;;7.85;2.42;;;;;;;17.68;49.63;102033.97;4984914;28;20035;-89
2023/06/03 07:36:20;;;;;;;5.97;2.50;;;;;;;17.86;47.76;102032.56;4974912;28;20030;-89
2023/06/03 07:39:02;;;;;;;3.70;2.20;;;;;;;18.04;48.25;102028.41;4975360;28;20035;-88
2023/06/03 07:41:35;;;;;;;4.30;2.00;;;;;;;18.09;46.51;102022.16;4972936;28;20330;-87
2023/06/03 07:44:13;;;;;;;7.15;2.15;;;;;;;18.07;46.51;102017.03;4958067;28;20094;-87
2023/06/03 07:46:42;;;;;;;6.45;2.13;;;;;;;18.05;43.94;102026.53;4973615;28;20069;-88
2023/06/03 07:49:19;;;;;;;7.32;2.10;;;;;;;18.16;45.85;102009.94;4974389;28;20035;-92
2023/06/03 07:51:47;;;;;;;8.18;1.80;;;;;;;18.26;42.97;102019.06;4964226;28;20367;-90
2023/06/03 07:54:13;;;;;;;5.40;1.98;;;;;;;18.31;43.47;102025.28;4969406;28;20034;-89
2023/06/03 07:56:40;;;;;;;5.45;1.80;;;;;;;18.39;43.96;102021.16;4994739;28;20031;-90
2023/06/03 07:59:08;;;;;;;3.88;1.65;;;;;;;18.41;41.94;102016.25;4983325;28;20075;-89
2023/06/03 08:01:33;;;;;;;5.57;1.90;;;;;;;18.53;42.66;102021.34;4979383;28;20118;-89
2023/06/03 08:04:31;;;;;;;2.20;1.30;;;;;;;18.63;43.08;102025.88;4993677;28;20169;-87
2023/06/03 08:07:00;;;;;;;12.68;1.92;;;;;;;18.88;41.88;102029.47;4976925;28;20053;-89
2023/06/03 08:09:28;;;;;;;5.23;1.67;;;;;;;19.00;40.21;102029.94;4958894;28;20038;-87
2023/06/03 08:11:55;;;;;;;4.73;1.40;;;;;;;19.03;40.99;102032.09;4989679;28;20298;-87
2023/06/03 08:14:22;;;;;;;5.72;1.42;;;;;;;19.07;40.64;102021.44;4991941;28;20037;-87
2023/06/03 08:16:47;;;;;;;4.22;1.50;;;;;;;19.16;40.57;102027.06;4992779;28;20391;-88
2023/06/03 08:19:16;;;;;;;9.30;1.95;;;;;;;19.29;40.56;102020.94;4987328;28;20033;-89
2023/06/03 08:21:41;;;;;;;5.13;1.50;;;;;;;19.46;38.41;102019.69;4981403;28;20394;-88
2023/06/03 08:24:08;;;;;;;4.70;1.60;;;;;;;19.52;39.11;102027.50;4977459;28;20027;-89
2023/06/03 08:26:36;;;;;;;6.28;1.45;;;;;;;19.38;37.40;102012.97;4971908;28;20029;-90
2023/06/03 08:29:02;;;;;;;4.22;1.52;;;;;;;19.42;38.48;102030.31;4969286;28;20027;-88
2023/06/03 08:31:29;;;;;;;5.07;1.83;;;;;;;19.50;35.76;102020.72;4970956;28;20545;-88
2023/06/03 08:33:55;;;;;;;3.80;1.55;;;;;;;19.47;37.21;102016.69;4956594;28;20074;-88
2023/06/03 08:36:20;;;;;;;5.20;1.63;;;;;;;19.57;37.13;102026.63;4975116;28;20081;-89
2023/06/03 08:38:46;;;;;;;8.10;1.70;;;;;;;19.63;35.77;102024.66;4955391;28;20497;-87
2023/06/03 08:41:12;;;;;;;6.33;1.73;;;;;;;19.60;36.36;102025.22;4971215;28;20023;-88
2023/06/03 08:43:44;;;;;;;3.65;1.50;;;;;;;19.67;36.85;102020.25;4972840;28;20045;-88
2023/06/03 08:46:23;;;;;;;5.15;1.60;;;;;;;19.67;36.54;102021.06;4974420;28;20051;-88
2023/06/03 08:49:03;;;;;;;4.32;1.45;;;;;;;19.84;37.70;102022.47;4972278;28;20574;-87
2023/06/03 08:51:36;;;;;;;4.13;1.50;;;;;;;19.85;35.71;102013.22;4977297;28;20027;-89
2023/06/03 08:54:08;;;;;;;8.40;1.60;;;;;;;20.08;36.67;102013.50;4979343;28;20061;-88
2023/06/03 08:56:38;;;;;;;4.90;1.57;;;;;;;20.12;35.84;102020.78;4971165;28;20325;-87
2023/06/03 09:02:44;;;;;;;9.30;1.70;;;;;;;19.92;33.79;101994.69;4986632;28;20026;-93
2023/06/03 09:05:10;;;;;;;6.38;1.30;;;;;;;20.03;34.23;102002.69;4986455;28;20038;-93
2023/06/03 09:07:35;;;;;;;4.10;1.20;;;;;;;19.95;34.76;102015.84;4989628;28;20129;-89
2023/06/03 09:10:03;;;;;;;3.53;1.47;;;;;;;20.18;34.64;102023.44;4986027;28;20046;-90
2023/06/03 09:12:37;;;;;;;2.88;1.50;;;;;;;20.10;34.34;101992.25;4948483;28;20108;-93
2023/06/03 09:17:47;;;;;;;3.53;1.30;;;;;;;20.43;33.90;102004.00;4987664;28;20661;-92
2023/06/03 09:20:13;;;;;;;2.57;1.33;;;;;;;20.70;33.80;102021.53;4979875;28;20023;-90
2023/06/03 09:23:13;;;;;;;3.17;1.35;;;;;;;20.56;32.92;102007.06;4965733;28;20027;-89
2023/06/03 09:25:38;;;;;;;3.80;1.35;;;;;;;20.60;31.97;102008.09;4951572;28;20501;-85
2023/06/03 09:28:04;;;;;;;5.93;1.70;;;;;;;20.66;31.02;102003.38;4971117;28;20058;-87
2023/06/03 09:30:33;;;;;;;4.05;1.20;;;;;;;20.65;31.48;102009.91;4960530;28;21736;-86
2023/06/03 09:33:07;;;;;;;2.08;1.10;;;;;;;20.76;32.36;102003.22;4951741;28;20490;-88
2023/06/03 09:35:33;;;;;;;2.47;1.42;;;;;;;20.91;31.60;102004.88;4964363;28;20034;-87
2023/06/03 09:38:06;;;;;;;3.77;1.50;;;;;;;21.11;31.95;102011.06;4969639;28;20023;-86
2023/06/03 09:40:33;;;;;;;3.30;1.40;;;;;;;21.13;30.77;102001.47;4978958;28;20022;-89
2023/06/03 09:42:59;;;;;;;6.85;1.23;;;;;;;21.25;32.28;102009.13;4991865;28;20034;-88
2023/06/03 09:45:31;;;;;;;3.67;1.30;;;;;;;21.32;30.79;102017.75;4975467;28;20100;-88
2023/06/03 09:48:00;;;;;;;3.40;1.40;;;;;;;21.27;30.36;102019.75;4992475;28;20022;-87
2023/06/03 09:50:28;;;;;;;3.45;1.38;;;;;;;21.17;29.04;102020.75;4989436;28;20027;-88
2023/06/03 09:52:53;;;;;;;6.72;1.42;;;;;;;21.20;29.62;102017.41;4991939;28;20026;-87
2023/06/03 09:55:22;;;;;;;5.43;1.20;;;;;;;21.21;28.83;102021.75;4970164;28;20368;-87
2023/06/03 09:58:10;;;;;;;3.08;1.30;;;;;;;21.24;29.16;102020.34;4971693;28;20023;-87
2023/06/03 10:00:49;;;;;;;3.30;1.50;;;;;;;21.49;27.91;102017.13;4951929;29;20035;-87
2023/06/03 10:03:16;;;;;;;1.98;1.40;;;;;;;21.57;27.81;102021.03;4952496;29;20023;-88
2023/06/03 10:05:41;;;;;;;2.42;1.48;;;;;;;21.75;29.33;102021.25;4951876;29;20055;-89
2023/06/03 10:08:07;;;;;;;5.97;1.30;;;;;;;21.75;28.03;102015.81;4954148;28;20050;-89
2023/06/03 10:10:35;;;;;;;4.20;1.40;;;;;;;21.70;27.01;102010.47;4945987;28;20019;-90
2023/06/03 10:13:18;;;;;;;4.97;1.63;;;;;;;21.73;28.55;102010.66;4972511;28;20442;-88
2023/06/03 10:15:43;;;;;;;3.38;1.30;;;;;;;21.70;27.04;102013.22;4957043;28;20389;-87
2023/06/03 10:18:10;;;;;;;4.53;1.33;;;;;;;21.88;27.36;102006.81;4973759;28;20106;-87
2023/06/03 10:20:37;;;;;;;4.50;1.40;;;;;;;22.06;28.69;102013.22;4957151;28;20049;-88
2023/06/03 10:23:05;;;;;;;2.75;1.20;;;;;;;22.12;28.66;102013.91;4979150;28;20378;-87
2023/06/03 10:25:52;;;;;;;4.30;1.13;;;;;;;22.15;28.34;102009.78;4973203;28;20080;-89
2023/06/03 10:28:19;;;;;;;4.20;1.27;;;;;;;22.04;27.36;102006.47;4956270;28;20282;-89
2023/06/03 10:30:44;;;;;;;2.55;1.55;;;;;;;21.96;26.59;102013.47;4974295;28;20081;-88
2023/06/03 10:33:10;;;;;;;2.17;1.10;;;;;;;22.05;27.43;101999.91;4974144;28;20042;-87
2023/06/03 10:35:37;;;;;;;1.50;1.23;;;;;;;22.35;26.72;102003.84;4980191;28;20088;-87
2023/06/03 10:38:05;;;;;;;4.30;1.25;;;;;;;22.34;26.48;102002.22;4994422;28;20026;-88
2023/06/03 10:40:31;;;;;;;2.57;1.00;;;;;;;22.35;26.69;101997.56;4978579;28;20100;-90
2023/06/03 10:42:57;;;;;;;2.93;1.00;;;;;;;22.50;26.60;102010.84;4971597;28;20773;-88
2023/06/03 10:45:29;;;;;;;3.33;1.20;;;;;;;22.51;27.34;101985.16;4974268;28;20376;-90
2023/06/03 10:48:02;;;;;;;2.83;1.20;;;;;;;22.72;27.12;101998.31;4959858;28;20037;-89
2023/06/03 10:50:39;;;;;;;3.40;1.20;;;;;;;22.74;25.53;102003.44;4974051;28;20282;-92
2023/06/03 10:53:19;;;;;;;6.72;1.17;;;;;;;22.87;27.03;102001.75;4956484;28;20406;-91
2023/06/03 10:56:07;;;;;;;5.43;1.20;;;;;;;22.79;26.87;102000.59;4973275;28;20478;-94
2023/06/03 10:58:32;;;;;;;1.35;1.20;;;;;;;22.76;25.57;102002.03;4974825;28;20026;-90
2023/06/03 11:01:03;;;;;;;3.88;1.20;;;;;;;22.94;26.07;101991.19;4973209;28;20039;-89
2023/06/03 11:03:37;;;;;;;3.87;0.90;;;;;;;22.93;25.55;101990.38;4956100;28;20118;-89
2023/06/03 11:06:21;;;;;;;8.03;1.20;;;;;;;23.07;25.28;102003.94;4972057;28;20348;-87
2023/06/03 11:09:00;;;;;;;2.22;1.23;;;;;;;23.06;24.87;101991.41;4989798;28;20371;-93
2023/06/03 11:11:41;;;;;;;2.72;1.20;;;;;;;23.05;26.14;102005.38;4941858;28;20046;-92
2023/06/03 11:14:54;;;;;;;4.47;1.30;;;;;;;23.12;25.40;101987.41;4974656;28;20051;-94
2023/06/03 11:17:20;;;;;;;1.40;1.10;;;;;;;23.09;25.20;101974.38;4933678;28;20162;-87
2023/06/03 11:19:51;;;;;;;4.85;1.10;;;;;;;23.06;27.15;101987.88;4971125;28;20101;-86
2023/06/03 11:22:28;;;;;;;1.70;1.20;;;;;;;23.12;25.51;102001.09;4972151;28;20026;-87
2023/06/03 11:24:55;;;;;;;6.05;1.10;;;;;;;23.06;24.48;101993.34;4974950;28;20038;-86
2023/06/03 11:27:20;;;;;;;1.80;1.17;;;;;;;23.27;24.80;102005.34;4952054;28;20039;-86
2023/06/03 11:29:49;;;;;;;1.30;1.13;;;;;;;23.28;25.84;102000.69;4959938;28;20042;-87
2023/06/03 11:32:19;;;;;;;3.30;1.15;;;;;;;23.41;24.95;101993.50;4972768;28;20085;-87
2023/06/03 11:34:46;;;;;;;1.70;1.03;;;;;;;23.36;24.27;102004.56;4978784;28;20031;-87